createdAt,value
2018-05-04T00:00:50.970Z,1008.60
2018-05-04T00:01:50.897Z,1008.55
2018-05-04T00:02:50.903Z,1008.58
2018-05-04T00:03:50.863Z,1008.59
2018-05-04T00:04:51.305Z,1008.64
2018-05-04T00:05:50.847Z,1008.61
2018-05-04T00:06:50.826Z,1008.62
2018-05-04T00:07:50.812Z,1008.60
2018-05-04T00:08:50.811Z,1008.59
2018-05-04T00:09:50.794Z,1008.59
2018-05-04T00:10:50.814Z,1008.58
2018-05-04T00:11:51.554Z,1008.58
2018-05-04T00:12:50.770Z,1008.60
2018-05-04T00:13:50.741Z,1008.58
2018-05-04T00:14:50.726Z,1008.59
2018-05-04T00:15:50.712Z,1008.61
2018-05-04T00:16:50.704Z,1008.61
2018-05-04T00:17:50.707Z,1008.59
2018-05-04T00:18:50.681Z,1008.58
2018-05-04T00:19:50.662Z,1008.55
2018-05-04T00:20:50.664Z,1008.53
2018-05-04T00:21:50.636Z,1008.57
2018-05-04T00:22:50.677Z,1008.59
2018-05-04T00:23:50.605Z,1008.61
2018-05-04T00:24:50.608Z,1008.62
2018-05-04T00:25:50.579Z,1008.63
2018-05-04T00:26:50.566Z,1008.65
2018-05-04T00:27:50.552Z,1008.65
2018-05-04T00:28:50.542Z,1008.63
2018-05-04T00:29:50.560Z,1008.65
2018-05-04T00:30:50.516Z,1008.72
2018-05-04T00:31:50.505Z,1008.73
2018-05-04T00:32:50.486Z,1008.73
2018-05-04T00:33:50.471Z,1008.75
2018-05-04T00:34:50.493Z,1008.79
2018-05-04T00:35:50.452Z,1008.79
2018-05-04T00:36:50.462Z,1008.76
2018-05-04T00:37:50.447Z,1008.80
2018-05-04T00:38:50.408Z,1008.83
2018-05-04T00:39:50.407Z,1008.86
2018-05-04T00:40:50.412Z,1008.84
2018-05-04T00:41:50.418Z,1008.90
2018-05-04T00:42:50.394Z,1008.94
2018-05-04T00:43:50.356Z,1008.92
2018-05-04T00:44:50.328Z,1008.94
2018-05-04T00:45:50.338Z,1008.93
2018-05-04T00:46:50.304Z,1008.94
2018-05-04T00:47:50.292Z,1008.97
2018-05-04T00:48:50.318Z,1008.91
2018-05-04T00:49:50.261Z,1008.90
2018-05-04T00:50:50.269Z,1008.92
2018-05-04T00:51:50.227Z,1008.93
2018-05-04T00:52:50.221Z,1008.96
2018-05-04T00:53:50.235Z,1008.95
2018-05-04T00:54:50.198Z,1008.97
2018-05-04T00:55:50.177Z,1008.98
2018-05-04T00:56:50.164Z,1008.91
2018-05-04T00:57:50.179Z,1008.94
2018-05-04T00:58:50.206Z,1008.93
2018-05-04T00:59:50.209Z,1008.97
2018-05-04T01:00:50.107Z,1008.92
2018-05-04T01:01:50.097Z,1008.93
2018-05-04T01:02:50.092Z,1008.92
2018-05-04T01:03:50.091Z,1008.95
2018-05-04T01:04:50.079Z,1008.97
2018-05-04T01:05:50.111Z,1009.01
2018-05-04T01:06:50.030Z,1009.03
2018-05-04T01:07:50.012Z,1009.05
2018-05-04T01:08:50.004Z,1009.07
2018-05-04T01:09:49.989Z,1009.04
2018-05-04T01:10:50.020Z,1009.04
2018-05-04T01:11:49.963Z,1009.04
2018-05-04T01:12:49.942Z,1009.02
2018-05-04T01:13:49.937Z,1009.01
2018-05-04T01:14:49.932Z,1009.05
2018-05-04T01:15:49.920Z,1009.04
2018-05-04T01:16:49.903Z,1009.05
2018-05-04T01:17:49.893Z,1009.07
2018-05-04T01:18:49.870Z,1009.11
2018-05-04T01:19:49.904Z,1009.12
2018-05-04T01:20:49.849Z,1009.11
2018-05-04T01:21:49.828Z,1009.11
2018-05-04T01:22:49.803Z,1009.15
2018-05-04T01:23:49.816Z,1009.15
2018-05-04T01:24:49.821Z,1009.18
2018-05-04T01:25:49.766Z,1009.14
2018-05-04T01:26:49.794Z,1009.18
2018-05-04T01:27:49.746Z,1009.15
2018-05-04T01:28:49.731Z,1009.17
2018-05-04T01:29:50.544Z,1009.21
2018-05-04T01:30:49.712Z,1009.19
2018-05-04T01:31:49.714Z,1009.22
2018-05-04T01:32:49.689Z,1009.23
2018-05-04T01:33:49.672Z,1009.25
2018-05-04T01:34:49.658Z,1009.22
2018-05-04T01:35:49.639Z,1009.24
2018-05-04T01:36:50.588Z,1009.24
2018-05-04T01:37:49.633Z,1009.24
2018-05-04T01:38:49.601Z,1009.22
2018-05-04T01:39:49.585Z,1009.23
2018-05-04T01:40:49.575Z,1009.22
2018-05-04T01:41:49.607Z,1009.24
2018-05-04T01:42:49.631Z,1009.29
2018-05-04T01:43:49.545Z,1009.29
2018-05-04T01:44:49.554Z,1009.27
2018-05-04T01:45:49.509Z,1009.29
2018-05-04T01:46:49.486Z,1009.28
2018-05-04T01:47:49.522Z,1009.36
2018-05-04T01:48:49.455Z,1009.38
2018-05-04T01:49:49.433Z,1009.34
2018-05-04T01:50:49.441Z,1009.36
2018-05-04T01:51:49.402Z,1009.37
2018-05-04T01:52:49.620Z,1009.36
2018-05-04T01:53:49.404Z,1009.35
2018-05-04T01:54:49.386Z,1009.40
2018-05-04T01:55:49.352Z,1009.39
2018-05-04T01:56:49.347Z,1009.43
2018-05-04T01:57:49.372Z,1009.43
2018-05-04T01:58:49.372Z,1009.44
2018-05-04T01:59:49.308Z,1009.43
2018-05-04T02:00:49.316Z,1009.44
2018-05-04T02:01:49.278Z,1009.40
2018-05-04T02:02:49.261Z,1009.41
2018-05-04T02:03:49.340Z,1009.41
2018-05-04T02:04:49.236Z,1009.42
2018-05-04T02:05:49.226Z,1009.48
2018-05-04T02:06:49.210Z,1009.47
2018-05-04T02:07:49.282Z,1009.44
2018-05-04T02:08:49.174Z,1009.42
2018-05-04T02:09:49.187Z,1009.39
2018-05-04T02:10:49.166Z,1009.41
2018-05-04T02:11:49.135Z,1009.43
2018-05-04T02:12:49.126Z,1009.44
2018-05-04T02:13:49.134Z,1009.41
2018-05-04T02:14:49.099Z,1009.42
2018-05-04T02:15:49.080Z,1009.43
2018-05-04T02:16:49.069Z,1009.38
2018-05-04T02:17:49.064Z,1009.35
2018-05-04T02:18:49.184Z,1009.36
2018-05-04T02:19:49.021Z,1009.33
2018-05-04T02:20:49.022Z,1009.35
2018-05-04T02:21:49.003Z,1009.38
2018-05-04T02:22:48.983Z,1009.34
2018-05-04T02:23:48.976Z,1009.37
2018-05-04T02:24:49.104Z,1009.39
2018-05-04T02:25:48.932Z,1009.41
2018-05-04T02:26:48.937Z,1009.39
2018-05-04T02:27:48.911Z,1009.49
2018-05-04T02:28:48.896Z,1009.49
2018-05-04T02:29:48.875Z,1009.48
2018-05-04T02:30:48.874Z,1009.48
2018-05-04T02:31:48.854Z,1009.50
2018-05-04T02:32:48.859Z,1009.47
2018-05-04T02:33:48.830Z,1009.52
2018-05-04T02:34:48.818Z,1009.49
2018-05-04T02:35:48.943Z,1009.51
2018-05-04T02:36:48.786Z,1009.51
2018-05-04T02:37:48.777Z,1009.51
2018-05-04T02:38:48.762Z,1009.50
2018-05-04T02:39:48.749Z,1009.53
2018-05-04T02:40:48.739Z,1009.50
2018-05-04T02:41:48.775Z,1009.44
2018-05-04T02:42:48.699Z,1009.46
2018-05-04T02:43:48.695Z,1009.46
2018-05-04T02:44:48.669Z,1009.47
2018-05-04T02:45:48.656Z,1009.48
2018-05-04T02:46:48.706Z,1009.45
2018-05-04T02:47:48.637Z,1009.47
2018-05-04T02:48:48.605Z,1009.45
2018-05-04T02:49:48.602Z,1009.48
2018-05-04T02:50:48.592Z,1009.49
2018-05-04T02:51:48.578Z,1009.48
2018-05-04T02:52:48.564Z,1009.46
2018-05-04T02:53:48.552Z,1009.49
2018-05-04T02:54:48.526Z,1009.45
2018-05-04T02:55:48.520Z,1009.49
2018-05-04T02:56:48.679Z,1009.47
2018-05-04T02:57:48.636Z,1009.46
2018-05-04T02:58:48.476Z,1009.42
2018-05-04T02:59:48.450Z,1009.41
2018-05-04T03:00:48.445Z,1009.38
2018-05-04T03:01:48.419Z,1009.35
2018-05-04T03:02:48.413Z,1009.31
2018-05-04T03:03:48.432Z,1009.34
2018-05-04T03:04:48.385Z,1009.32
2018-05-04T03:05:48.376Z,1009.28
2018-05-04T03:06:48.356Z,1009.30
2018-05-04T03:07:48.337Z,1009.29
2018-05-04T03:08:48.646Z,1009.29
2018-05-04T03:09:48.318Z,1009.33
2018-05-04T03:10:48.319Z,1009.25
2018-05-04T03:11:48.277Z,1009.25
2018-05-04T03:12:48.273Z,1009.22
2018-05-04T03:13:48.259Z,1009.24
2018-05-04T03:14:48.262Z,1009.19
2018-05-04T03:15:48.286Z,1009.21
2018-05-04T03:16:48.210Z,1009.21
2018-05-04T03:17:48.203Z,1009.19
2018-05-04T03:18:48.184Z,1009.19
2018-05-04T03:19:48.166Z,1009.20
2018-05-04T03:20:48.161Z,1009.12
2018-05-04T03:21:48.269Z,1009.14
2018-05-04T03:22:48.120Z,1009.13
2018-05-04T03:23:48.109Z,1009.15
2018-05-04T03:24:48.102Z,1009.15
2018-05-04T03:25:48.078Z,1009.13
2018-05-04T03:26:48.063Z,1009.13
2018-05-04T03:27:48.066Z,1009.13
2018-05-04T03:28:48.038Z,1009.16
2018-05-04T03:29:48.022Z,1009.12
2018-05-04T03:30:48.021Z,1009.10
2018-05-04T03:31:47.982Z,1009.13
2018-05-04T03:32:48.124Z,1009.09
2018-05-04T03:33:47.950Z,1009.08
2018-05-04T03:34:47.956Z,1009.07
2018-05-04T03:35:47.942Z,1009.07
2018-05-04T03:36:47.922Z,1009.04
2018-05-04T03:37:47.900Z,1009.04
2018-05-04T03:38:47.937Z,1009.07
2018-05-04T03:39:47.882Z,1009.09
2018-05-04T03:40:47.996Z,1009.06
2018-05-04T03:41:47.834Z,1009.10
2018-05-04T03:42:47.857Z,1009.06
2018-05-04T03:43:47.802Z,1009.04
2018-05-04T03:44:47.797Z,1009.05
2018-05-04T03:45:47.788Z,1009.05
2018-05-04T03:46:47.769Z,1009.01
2018-05-04T03:47:47.752Z,1009.03
2018-05-04T03:48:47.734Z,1009.06
2018-05-04T03:49:47.754Z,1009.03
2018-05-04T03:50:47.693Z,1009.07
2018-05-04T03:51:47.697Z,1009.11
2018-05-04T03:52:47.675Z,1009.13
2018-05-04T03:53:47.714Z,1009.17
2018-05-04T03:54:47.657Z,1009.15
2018-05-04T03:55:47.624Z,1009.18
2018-05-04T03:56:47.615Z,1009.15
2018-05-04T03:57:47.600Z,1009.16
2018-05-04T03:58:47.619Z,1009.16
2018-05-04T03:59:47.573Z,1009.17
2018-05-04T04:00:47.566Z,1009.17
2018-05-04T04:01:47.555Z,1009.16
2018-05-04T04:02:47.567Z,1009.17
2018-05-04T04:03:47.647Z,1009.16
2018-05-04T04:04:47.496Z,1009.18
2018-05-04T04:05:47.481Z,1009.21
2018-05-04T04:06:47.467Z,1009.22
2018-05-04T04:07:47.452Z,1009.25
2018-05-04T04:08:47.473Z,1009.29
2018-05-04T04:09:47.424Z,1009.28
2018-05-04T04:10:47.445Z,1009.29
2018-05-04T04:11:47.387Z,1009.29
2018-05-04T04:12:47.373Z,1009.30
2018-05-04T04:13:47.501Z,1009.30
2018-05-04T04:14:47.344Z,1009.29
2018-05-04T04:15:47.361Z,1009.29
2018-05-04T04:16:47.306Z,1009.31
2018-05-04T04:17:47.299Z,1009.33
2018-05-04T04:18:47.288Z,1009.33
2018-05-04T04:19:47.280Z,1009.37
2018-05-04T04:20:47.246Z,1009.36
2018-05-04T04:21:47.245Z,1009.37
2018-05-04T04:22:47.220Z,1009.37
2018-05-04T04:23:47.204Z,1009.37
2018-05-04T04:24:47.249Z,1009.40
2018-05-04T04:25:47.178Z,1009.39
2018-05-04T04:26:47.176Z,1009.39
2018-05-04T04:27:47.148Z,1009.42
2018-05-04T04:28:47.132Z,1009.41
2018-05-04T04:29:47.128Z,1009.39
2018-05-04T04:30:47.159Z,1009.38
2018-05-04T04:31:47.091Z,1009.39
2018-05-04T04:32:47.079Z,1009.38
2018-05-04T04:33:47.062Z,1009.39
2018-05-04T04:34:47.057Z,1009.39
2018-05-04T04:35:47.026Z,1009.39
2018-05-04T04:36:47.026Z,1009.33
2018-05-04T04:37:47.049Z,1009.37
2018-05-04T04:38:47.116Z,1009.37
2018-05-04T04:39:46.984Z,1009.37
2018-05-04T04:40:46.961Z,1009.38
2018-05-04T04:41:46.980Z,1009.34
2018-05-04T04:42:46.985Z,1009.42
2018-05-04T04:43:46.917Z,1009.45
2018-05-04T04:44:47.161Z,1009.51
2018-05-04T04:45:46.986Z,1009.51
2018-05-04T04:46:46.862Z,1009.59
2018-05-04T04:47:46.856Z,1009.58
2018-05-04T04:48:46.845Z,1009.61
2018-05-04T04:49:46.826Z,1009.61
2018-05-04T04:50:47.721Z,1009.65
2018-05-04T04:51:47.727Z,1009.64
2018-05-04T04:52:46.770Z,1009.63
2018-05-04T04:53:46.754Z,1009.60
2018-05-04T04:54:46.903Z,1009.62
2018-05-04T04:55:46.721Z,1009.61
2018-05-04T04:56:46.720Z,1009.54
2018-05-04T04:57:46.698Z,1009.61
2018-05-04T04:58:46.678Z,1009.62
2018-05-04T04:59:46.668Z,1009.65
2018-05-04T05:00:49.627Z,1009.64
2018-05-04T05:01:46.715Z,1009.67
2018-05-04T05:02:46.626Z,1009.71
2018-05-04T05:03:46.708Z,1009.73
2018-05-04T05:04:46.658Z,1009.71
2018-05-04T05:05:47.739Z,1009.73
2018-05-04T05:06:46.753Z,1009.70
2018-05-04T05:07:46.546Z,1009.69
2018-05-04T05:08:46.527Z,1009.73
2018-05-04T05:09:46.514Z,1009.73
2018-05-04T05:10:46.527Z,1009.75
2018-05-04T05:11:46.482Z,1009.75
2018-05-04T05:12:46.472Z,1009.77
2018-05-04T05:13:46.467Z,1009.82
2018-05-04T05:14:46.450Z,1009.82
2018-05-04T05:15:46.465Z,1009.85
2018-05-04T05:16:46.407Z,1009.84
2018-05-04T05:17:46.446Z,1009.84
2018-05-04T05:18:46.394Z,1009.83
2018-05-04T05:19:46.365Z,1009.84
2018-05-04T05:20:46.339Z,1009.85
2018-05-04T05:21:46.387Z,1009.82
2018-05-04T05:22:46.324Z,1009.88
2018-05-04T05:23:46.437Z,1009.89
2018-05-04T05:24:46.685Z,1009.90
2018-05-04T05:25:46.280Z,1009.88
2018-05-04T05:26:46.268Z,1009.88
2018-05-04T05:27:46.270Z,1009.91
2018-05-04T05:28:46.259Z,1009.94
2018-05-04T05:29:46.286Z,1009.91
2018-05-04T05:30:46.201Z,1009.96
2018-05-04T05:31:46.186Z,1009.94
2018-05-04T05:32:46.168Z,1009.99
2018-05-04T05:33:46.155Z,1009.99
2018-05-04T05:34:46.139Z,1010.03
2018-05-04T05:35:46.146Z,1010.00
2018-05-04T05:36:46.118Z,1010.03
2018-05-04T05:37:46.089Z,1010.07
2018-05-04T05:38:46.085Z,1010.05
2018-05-04T05:39:46.066Z,1010.05
2018-05-04T05:40:46.079Z,1010.02
2018-05-04T05:41:46.039Z,1010.01
2018-05-04T05:42:46.087Z,1010.02
2018-05-04T05:43:46.013Z,1010.01
2018-05-04T05:44:46.003Z,1010.01
2018-05-04T05:45:45.981Z,1010.03
2018-05-04T05:46:45.975Z,1010.01
2018-05-04T05:47:45.952Z,1010.06
2018-05-04T05:48:45.977Z,1010.09
2018-05-04T05:49:45.945Z,1010.11
2018-05-04T05:50:45.906Z,1010.08
2018-05-04T05:51:45.948Z,1010.14
2018-05-04T05:52:45.917Z,1010.14
2018-05-04T05:53:45.875Z,1010.18
2018-05-04T05:54:46.027Z,1010.19
2018-05-04T05:55:45.838Z,1010.22
2018-05-04T05:56:45.837Z,1010.26
2018-05-04T05:57:45.825Z,1010.23
2018-05-04T05:58:45.878Z,1010.24
2018-05-04T05:59:45.787Z,1010.24
2018-05-04T06:00:46.068Z,1010.25
2018-05-04T06:01:45.766Z,1010.26
2018-05-04T06:02:45.759Z,1010.27
2018-05-04T06:03:45.770Z,1010.21
2018-05-04T06:04:45.714Z,1010.22
2018-05-04T06:05:45.716Z,1010.26
2018-05-04T06:06:45.704Z,1010.24
2018-05-04T06:07:45.671Z,1010.21
2018-05-04T06:08:45.658Z,1010.22
2018-05-04T06:09:45.638Z,1010.26
2018-05-04T06:10:45.639Z,1010.29
2018-05-04T06:11:45.645Z,1010.31
2018-05-04T06:12:45.618Z,1010.30
2018-05-04T06:13:45.596Z,1010.30
2018-05-04T06:14:45.576Z,1010.34
2018-05-04T06:15:45.733Z,1010.35
2018-05-04T06:16:45.540Z,1010.35
2018-05-04T06:17:45.548Z,1010.36
2018-05-04T06:18:45.520Z,1010.37
2018-05-04T06:19:45.516Z,1010.35
2018-05-04T06:20:45.500Z,1010.39
2018-05-04T06:21:45.499Z,1010.38
2018-05-04T06:22:45.473Z,1010.37
2018-05-04T06:23:45.475Z,1010.36
2018-05-04T06:24:45.482Z,1010.38
2018-05-04T06:25:45.425Z,1010.34
2018-05-04T06:26:47.216Z,1010.32
2018-05-04T06:27:45.437Z,1010.24
2018-05-04T06:28:45.383Z,1010.25
2018-05-04T06:29:45.381Z,1010.28
2018-05-04T06:30:45.451Z,1010.26
2018-05-04T06:31:45.413Z,1010.24
2018-05-04T06:32:45.434Z,1010.27
2018-05-04T06:33:45.336Z,1010.28
2018-05-04T06:34:45.315Z,1010.28
2018-05-04T06:35:45.304Z,1010.32
2018-05-04T06:36:45.319Z,1010.32
2018-05-04T06:37:45.257Z,1010.33
2018-05-04T06:38:45.280Z,1010.35
2018-05-04T06:39:45.357Z,1010.34
2018-05-04T06:40:45.238Z,1010.31
2018-05-04T06:41:45.399Z,1010.33
2018-05-04T06:42:45.215Z,1010.32
2018-05-04T06:43:45.192Z,1010.32
2018-05-04T06:44:45.176Z,1010.33
2018-05-04T06:45:45.247Z,1010.24
2018-05-04T06:46:45.151Z,1010.29
2018-05-04T06:47:45.187Z,1010.31
2018-05-04T06:48:45.218Z,1010.31
2018-05-04T06:49:45.644Z,1010.32
2018-05-04T06:50:45.271Z,1010.36
2018-05-04T06:51:45.088Z,1010.37
2018-05-04T06:52:45.128Z,1010.35
2018-05-04T06:53:45.692Z,1010.37
2018-05-04T06:54:45.050Z,1010.43
2018-05-04T06:55:45.040Z,1010.42
2018-05-04T06:56:45.052Z,1010.42
2018-05-04T06:57:45.026Z,1010.41
2018-05-04T06:58:45.001Z,1010.41
2018-05-04T06:59:44.994Z,1010.44
2018-05-04T07:00:45.029Z,1010.43
2018-05-04T07:01:45.033Z,1010.43
2018-05-04T07:02:44.955Z,1010.49
2018-05-04T07:03:44.973Z,1010.46
2018-05-04T07:04:44.940Z,1010.47
2018-05-04T07:05:44.933Z,1010.46
2018-05-04T07:06:44.922Z,1010.52
2018-05-04T07:07:44.883Z,1010.49
2018-05-04T07:08:44.930Z,1010.49
2018-05-04T07:09:44.901Z,1010.49
2018-05-04T07:10:44.869Z,1010.47
2018-05-04T07:11:45.645Z,1010.48
2018-05-04T07:12:44.892Z,1010.50
2018-05-04T07:13:44.854Z,1010.46
2018-05-04T07:14:44.802Z,1010.47
2018-05-04T07:15:44.792Z,1010.47
2018-05-04T07:16:44.790Z,1010.47
2018-05-04T07:17:44.772Z,1010.46
2018-05-04T07:18:44.833Z,1010.43
2018-05-04T07:19:44.756Z,1010.50
2018-05-04T07:20:44.730Z,1010.49
2018-05-04T07:21:44.723Z,1010.45
2018-05-04T07:22:44.715Z,1010.47
2018-05-04T07:23:44.712Z,1010.45
2018-05-04T07:24:44.846Z,1010.46
2018-05-04T07:25:44.685Z,1010.42
2018-05-04T07:26:44.699Z,1010.44
2018-05-04T07:27:44.651Z,1010.45
2018-05-04T07:28:44.783Z,1010.44
2018-05-04T07:29:44.668Z,1010.40
2018-05-04T07:30:44.707Z,1010.43
2018-05-04T07:31:44.599Z,1010.45
2018-05-04T07:32:44.640Z,1010.44
2018-05-04T07:33:44.610Z,1010.45
2018-05-04T07:34:44.585Z,1010.45
2018-05-04T07:35:44.716Z,1010.48
2018-05-04T07:36:44.542Z,1010.46
2018-05-04T07:37:44.603Z,1010.45
2018-05-04T07:38:44.570Z,1010.43
2018-05-04T07:39:44.521Z,1010.44
2018-05-04T07:40:44.499Z,1010.46
2018-05-04T07:41:44.689Z,1010.45
2018-05-04T07:42:45.232Z,1010.47
2018-05-04T07:43:44.460Z,1010.43
2018-05-04T07:44:45.262Z,1010.44
2018-05-04T07:45:44.458Z,1010.44
2018-05-04T07:46:44.468Z,1010.43
2018-05-04T07:47:44.428Z,1010.40
2018-05-04T07:48:44.494Z,1010.38
2018-05-04T07:49:44.510Z,1010.39
2018-05-04T07:50:44.407Z,1010.37
2018-05-04T07:51:44.381Z,1010.36
2018-05-04T07:52:44.420Z,1010.37
2018-05-04T07:53:44.359Z,1010.34
2018-05-04T07:54:44.357Z,1010.33
2018-05-04T07:55:44.702Z,1010.33
2018-05-04T07:56:44.424Z,1010.33
2018-05-04T07:57:44.311Z,1010.35
2018-05-04T07:58:44.294Z,1010.35
2018-05-04T07:59:45.160Z,1010.39
2018-05-04T08:00:44.308Z,1010.36
2018-05-04T08:01:44.419Z,1010.36
2018-05-04T08:02:44.295Z,1010.36
2018-05-04T08:03:44.246Z,1010.39
2018-05-04T08:04:44.248Z,1010.36
2018-05-04T08:05:44.261Z,1010.42
2018-05-04T08:06:44.203Z,1010.41
2018-05-04T08:07:44.194Z,1010.38
2018-05-04T08:08:44.258Z,1010.37
2018-05-04T08:09:44.193Z,1010.39
2018-05-04T08:10:44.166Z,1010.39
2018-05-04T08:11:44.182Z,1010.42
2018-05-04T08:12:44.141Z,1010.42
2018-05-04T08:13:44.171Z,1010.43
2018-05-04T08:14:44.228Z,1010.43
2018-05-04T08:15:44.116Z,1010.42
2018-05-04T08:16:44.099Z,1010.43
2018-05-04T08:17:44.106Z,1010.46
2018-05-04T08:18:44.105Z,1010.45
2018-05-04T08:19:44.074Z,1010.42
2018-05-04T08:20:44.131Z,1010.48
2018-05-04T08:21:44.043Z,1010.47
2018-05-04T08:22:44.045Z,1010.48
2018-05-04T08:23:44.168Z,1010.49
2018-05-04T08:24:44.038Z,1010.52
2018-05-04T08:25:44.019Z,1010.55
2018-05-04T08:26:44.155Z,1010.57
2018-05-04T08:27:44.003Z,1010.61
2018-05-04T08:28:44.049Z,1010.58
2018-05-04T08:29:43.956Z,1010.57
2018-05-04T08:30:44.003Z,1010.57
2018-05-04T08:31:43.951Z,1010.56
2018-05-04T08:32:44.041Z,1010.57
2018-05-04T08:33:43.920Z,1010.57
2018-05-04T08:34:43.940Z,1010.59
2018-05-04T08:35:43.935Z,1010.62
2018-05-04T08:36:43.905Z,1010.62
2018-05-04T08:37:43.885Z,1010.61
2018-05-04T08:38:43.927Z,1010.64
2018-05-04T08:39:43.899Z,1010.58
2018-05-04T08:40:43.883Z,1010.59
2018-05-04T08:41:43.855Z,1010.63
2018-05-04T08:42:43.987Z,1010.63
2018-05-04T08:43:44.023Z,1010.60
2018-05-04T08:44:43.828Z,1010.60
2018-05-04T08:45:44.772Z,1010.61
2018-05-04T08:46:43.814Z,1010.61
2018-05-04T08:47:43.797Z,1010.61
2018-05-04T08:48:43.829Z,1010.58
2018-05-04T08:49:43.921Z,1010.56
2018-05-04T08:50:43.767Z,1010.60
2018-05-04T08:51:43.770Z,1010.58
2018-05-04T08:52:43.744Z,1010.55
2018-05-04T08:53:43.740Z,1010.52
2018-05-04T08:54:43.756Z,1010.54
2018-05-04T08:55:43.768Z,1010.52
2018-05-04T08:56:43.717Z,1010.56
2018-05-04T08:57:43.694Z,1010.47
2018-05-04T08:58:43.700Z,1010.53
2018-05-04T08:59:43.684Z,1010.58
2018-05-04T09:00:43.747Z,1010.55
2018-05-04T09:01:43.669Z,1010.53
2018-05-04T09:02:43.694Z,1010.57
2018-05-04T09:03:43.674Z,1010.54
2018-05-04T09:04:43.688Z,1010.54
2018-05-04T09:05:43.946Z,1010.48
2018-05-04T09:06:43.624Z,1010.49
2018-05-04T09:07:43.640Z,1010.50
2018-05-04T09:08:43.641Z,1010.51
2018-05-04T09:09:43.608Z,1010.50
2018-05-04T09:10:43.602Z,1010.51
2018-05-04T09:11:43.610Z,1010.49
2018-05-04T09:12:43.588Z,1010.50
2018-05-04T09:13:43.569Z,1010.49
2018-05-04T09:14:43.572Z,1010.48
2018-05-04T09:15:43.581Z,1010.44
2018-05-04T09:16:43.586Z,1010.45
2018-05-04T09:17:43.541Z,1010.50
2018-05-04T09:18:43.523Z,1010.50
2018-05-04T09:19:43.630Z,1010.52
2018-05-04T09:20:43.543Z,1010.50
2018-05-04T09:21:43.806Z,1010.53
2018-05-04T09:22:43.503Z,1010.53
2018-05-04T09:23:43.499Z,1010.53
2018-05-04T09:24:43.498Z,1010.59
2018-05-04T09:25:43.496Z,1010.61
2018-05-04T09:26:43.507Z,1010.56
2018-05-04T09:27:43.509Z,1010.54
2018-05-04T09:28:43.474Z,1010.52
2018-05-04T09:29:43.478Z,1010.54
2018-05-04T09:30:43.520Z,1010.53
2018-05-04T09:31:43.461Z,1010.56
2018-05-04T09:32:43.488Z,1010.54
2018-05-04T09:33:43.465Z,1010.54
2018-05-04T09:34:43.487Z,1010.57
2018-05-04T09:35:43.438Z,1010.55
2018-05-04T09:36:43.447Z,1010.54
2018-05-04T09:37:43.443Z,1010.54
2018-05-04T09:38:43.448Z,1010.58
2018-05-04T09:39:43.499Z,1010.60
2018-05-04T09:40:43.422Z,1010.56
2018-05-04T09:41:43.428Z,1010.57
2018-05-04T09:42:43.422Z,1010.62
2018-05-04T09:43:43.417Z,1010.59
2018-05-04T09:44:43.409Z,1010.60
2018-05-04T09:45:43.424Z,1010.62
2018-05-04T09:46:43.429Z,1010.64
2018-05-04T09:47:43.418Z,1010.62
2018-05-04T09:48:43.401Z,1010.62
2018-05-04T09:49:43.396Z,1010.63
2018-05-04T09:50:43.453Z,1010.61
2018-05-04T09:51:43.395Z,1010.63
2018-05-04T09:52:43.390Z,1010.60
2018-05-04T09:53:43.387Z,1010.64
2018-05-04T09:54:43.403Z,1010.63
2018-05-04T09:55:43.385Z,1010.64
2018-05-04T09:56:43.514Z,1010.60
2018-05-04T09:57:43.371Z,1010.66
2018-05-04T09:58:43.386Z,1010.60
2018-05-04T09:59:43.379Z,1010.54
2018-05-04T10:00:43.412Z,1010.55
2018-05-04T10:01:43.373Z,1010.56
2018-05-04T10:02:43.399Z,1010.59
2018-05-04T10:03:43.363Z,1010.60
2018-05-04T10:04:43.374Z,1010.64
2018-05-04T10:05:43.380Z,1010.63
2018-05-04T10:06:43.380Z,1010.68
2018-05-04T10:07:44.718Z,1010.65
2018-05-04T10:08:43.366Z,1010.69
2018-05-04T10:09:43.370Z,1010.66
2018-05-04T10:10:43.392Z,1010.60
2018-05-04T10:11:43.380Z,1010.72
2018-05-04T10:12:43.370Z,1010.77
2018-05-04T10:13:43.402Z,1010.73
2018-05-04T10:14:43.398Z,1010.75
2018-05-04T10:15:43.374Z,1010.79
2018-05-04T10:16:43.388Z,1010.83
2018-05-04T10:17:43.384Z,1010.81
2018-05-04T10:18:43.483Z,1010.82
2018-05-04T10:19:43.377Z,1010.84
2018-05-04T10:20:43.375Z,1010.87
2018-05-04T10:21:43.385Z,1010.89
2018-05-04T10:22:43.446Z,1010.93
2018-05-04T10:23:43.380Z,1010.96
2018-05-04T10:24:43.375Z,1010.95
2018-05-04T10:25:43.387Z,1010.95
2018-05-04T10:26:43.659Z,1010.97
2018-05-04T10:27:43.383Z,1010.98
2018-05-04T10:28:43.767Z,1010.76
2018-05-04T10:29:43.382Z,1010.68
2018-05-04T10:30:43.413Z,1010.65
2018-05-04T10:31:43.392Z,1010.72
2018-05-04T10:32:43.404Z,1010.66
2018-05-04T10:33:43.395Z,1010.63
2018-05-04T10:34:43.425Z,1010.91
2018-05-04T10:35:43.407Z,1010.79
2018-05-04T10:36:43.404Z,1010.65
2018-05-04T10:37:43.405Z,1010.63
2018-05-04T10:38:43.414Z,1010.59
2018-05-04T10:39:43.455Z,1010.62
2018-05-04T10:40:43.446Z,1010.60
2018-05-04T10:41:43.411Z,1010.57
2018-05-04T10:42:43.415Z,1010.58
2018-05-04T10:43:43.439Z,1010.60
2018-05-04T10:44:43.419Z,1010.62
2018-05-04T10:45:43.462Z,1010.60
2018-05-04T10:46:43.446Z,1010.58
2018-05-04T10:47:43.407Z,1010.56
2018-05-04T10:48:43.403Z,1010.52
2018-05-04T10:49:43.399Z,1010.51
2018-05-04T10:50:43.423Z,1010.47
2018-05-04T10:51:43.571Z,1010.48
2018-05-04T10:52:43.395Z,1010.52
2018-05-04T10:53:43.395Z,1010.59
2018-05-04T10:54:43.388Z,1010.54
2018-05-04T10:55:43.397Z,1010.54
2018-05-04T10:56:43.389Z,1010.56
2018-05-04T10:57:43.415Z,1010.56
2018-05-04T10:58:43.392Z,1010.62
2018-05-04T10:59:43.403Z,1010.63
2018-05-04T11:00:43.375Z,1010.58
2018-05-04T11:01:43.370Z,1010.57
2018-05-04T11:02:43.407Z,1010.63
2018-05-04T11:03:43.365Z,1010.60
2018-05-04T11:04:43.363Z,1010.60
2018-05-04T11:05:43.345Z,1010.64
2018-05-04T11:06:43.438Z,1010.58
2018-05-04T11:07:43.345Z,1010.53
2018-05-04T11:08:43.374Z,1010.74
2018-05-04T11:09:43.341Z,1010.72
2018-05-04T11:10:43.328Z,1010.69
2018-05-04T11:11:43.344Z,1010.64
2018-05-04T11:12:43.315Z,1010.67
2018-05-04T11:13:43.381Z,1010.70
2018-05-04T11:14:43.310Z,1010.71
2018-05-04T11:15:43.303Z,1011.01
2018-05-04T11:16:43.291Z,1010.82
2018-05-04T11:17:43.286Z,1010.84
2018-05-04T11:18:43.294Z,1010.67
2018-05-04T11:19:43.302Z,1010.76
2018-05-04T11:20:43.471Z,1010.69
2018-05-04T11:21:43.282Z,1010.61
2018-05-04T11:22:43.279Z,1010.60
2018-05-04T11:23:43.274Z,1010.64
2018-05-04T11:24:43.277Z,1010.65
2018-05-04T11:25:43.285Z,1010.61
2018-05-04T11:26:43.305Z,1010.83
2018-05-04T11:27:43.250Z,1010.87
2018-05-04T11:28:43.296Z,1011.11
2018-05-04T11:29:43.250Z,1011.09
2018-05-04T11:30:43.267Z,1011.17
2018-05-04T11:31:43.225Z,1011.39
2018-05-04T11:32:43.280Z,1011.47
2018-05-04T11:33:43.264Z,1011.34
2018-05-04T11:34:43.225Z,1011.26
2018-05-04T11:35:43.236Z,1011.43
2018-05-04T11:36:43.229Z,1011.49
2018-05-04T11:37:43.219Z,1011.10
2018-05-04T11:38:43.211Z,1011.49
2018-05-04T11:39:43.225Z,1010.99
2018-05-04T11:40:43.235Z,1011.52
2018-05-04T11:41:43.287Z,1010.85
2018-05-04T11:42:43.202Z,1010.97
2018-05-04T11:43:43.216Z,1011.09
2018-05-04T11:44:43.202Z,1011.12
2018-05-04T11:45:43.206Z,1010.88
2018-05-04T11:46:43.211Z,1011.09
2018-05-04T11:47:43.243Z,1011.01
2018-05-04T11:48:43.225Z,1011.08
2018-05-04T11:49:43.321Z,1011.59
2018-05-04T11:50:43.185Z,1011.77
2018-05-04T11:51:43.206Z,1012.06
2018-05-04T11:52:43.219Z,1012.06
2018-05-04T11:53:43.257Z,1012.04
2018-05-04T11:54:43.224Z,1011.49
2018-05-04T11:55:43.213Z,1011.04
2018-05-04T11:56:43.188Z,1010.69
2018-05-04T11:57:43.211Z,1010.74
2018-05-04T11:58:43.175Z,1010.80
2018-05-04T11:59:43.210Z,1011.94
2018-05-04T12:00:43.178Z,1011.90
2018-05-04T12:01:43.182Z,1011.39
2018-05-04T12:02:43.179Z,1010.82
2018-05-04T12:03:43.237Z,1011.31
2018-05-04T12:04:43.187Z,1010.88
2018-05-04T12:05:43.173Z,1011.45